createdAt,value
2017-05-09T00:02:12.058Z,1.60
2017-05-09T00:04:41.130Z,2.84
2017-05-09T00:07:10.234Z,1.60
2017-05-09T00:09:39.342Z,1.56
2017-05-09T00:12:08.417Z,1.88
2017-05-09T00:14:37.514Z,2.02
2017-05-09T00:17:06.606Z,2.20
2017-05-09T00:19:35.726Z,2.02
2017-05-09T00:22:04.790Z,2.22
2017-05-09T00:24:33.870Z,1.50
2017-05-09T00:27:02.961Z,1.82
2017-05-09T00:29:32.032Z,2.04
2017-05-09T00:32:01.137Z,1.78
2017-05-09T00:34:30.366Z,2.04
2017-05-09T00:36:59.483Z,2.24
2017-05-09T00:39:28.575Z,2.10
2017-05-09T00:41:57.656Z,1.96
2017-05-09T00:44:26.762Z,1.72
2017-05-09T00:46:55.082Z,2.10
2017-05-09T00:49:24.184Z,2.54
2017-05-09T00:51:53.244Z,1.76
2017-05-09T00:54:22.372Z,2.14
2017-05-09T00:56:51.458Z,2.52
2017-05-09T00:59:20.539Z,2.92
2017-05-09T01:01:49.633Z,2.72
2017-05-09T01:04:18.841Z,2.38
2017-05-09T01:06:47.973Z,2.54
2017-05-09T01:09:17.052Z,2.18
2017-05-09T01:11:46.149Z,2.42
2017-05-09T01:14:15.238Z,2.00
2017-05-09T01:16:44.345Z,1.80
2017-05-09T01:19:13.545Z,2.10
2017-05-09T01:21:42.636Z,2.42
2017-05-09T01:24:11.711Z,3.08
2017-05-09T01:26:40.809Z,2.78
2017-05-09T01:29:09.912Z,2.20
2017-05-09T01:31:38.994Z,2.28
2017-05-09T01:34:08.102Z,2.22
2017-05-09T01:36:37.177Z,2.24
2017-05-09T01:39:06.300Z,3.10
2017-05-09T01:41:35.413Z,2.32
2017-05-09T01:44:04.489Z,2.46
2017-05-09T01:46:33.606Z,1.90
2017-05-09T01:49:02.687Z,2.76
2017-05-09T01:51:31.795Z,3.18
2017-05-09T01:54:00.876Z,2.50
2017-05-09T01:56:29.997Z,3.04
2017-05-09T01:58:59.082Z,2.72
2017-05-09T02:01:28.176Z,2.74
2017-05-09T02:04:01.878Z,2.82
2017-05-09T02:06:30.959Z,2.70
2017-05-09T02:09:00.042Z,2.40
2017-05-09T02:11:29.143Z,2.56
2017-05-09T02:13:58.223Z,2.36
2017-05-09T02:16:27.315Z,2.24
2017-05-09T02:18:56.409Z,2.96
2017-05-09T02:21:25.477Z,2.50
2017-05-09T02:23:54.590Z,2.00
2017-05-09T02:26:23.661Z,2.16
2017-05-09T02:28:52.753Z,2.50
2017-05-09T02:31:21.853Z,2.72
2017-05-09T02:33:50.915Z,2.80
2017-05-09T02:36:20.011Z,2.44
2017-05-09T02:38:49.125Z,2.22
2017-05-09T02:41:18.407Z,1.86
2017-05-09T02:43:47.486Z,2.06
2017-05-09T02:46:16.581Z,2.58
2017-05-09T02:48:45.674Z,2.54
2017-05-09T02:51:14.746Z,2.38
2017-05-09T02:53:43.838Z,2.12
2017-05-09T02:56:12.942Z,2.20
2017-05-09T02:58:42.029Z,2.32
2017-05-09T03:01:11.112Z,2.16
2017-05-09T03:03:40.223Z,3.10
2017-05-09T03:06:09.303Z,2.42
2017-05-09T03:08:38.397Z,2.80
2017-05-09T03:11:07.547Z,2.00
2017-05-09T03:13:35.841Z,2.20
2017-05-09T03:16:04.954Z,2.02
2017-05-09T03:18:34.037Z,2.42
2017-05-09T03:21:03.130Z,2.80
2017-05-09T03:23:32.229Z,2.10
2017-05-09T03:26:01.394Z,2.40
2017-05-09T03:28:30.757Z,2.14
2017-05-09T03:30:59.821Z,2.00
2017-05-09T03:33:28.887Z,2.84
2017-05-09T03:35:57.982Z,2.92
2017-05-09T03:38:27.339Z,2.32
2017-05-09T03:40:56.401Z,2.00
2017-05-09T03:43:26.240Z,2.58
2017-05-09T03:45:55.337Z,2.98
2017-05-09T03:48:24.415Z,2.70
2017-05-09T03:50:53.525Z,2.52
2017-05-09T03:53:22.591Z,2.74
2017-05-09T03:55:51.702Z,2.76
2017-05-09T03:58:20.774Z,2.70
2017-05-09T04:00:49.868Z,2.46
2017-05-09T04:03:18.961Z,3.08
2017-05-09T04:05:48.078Z,3.22
2017-05-09T04:08:16.866Z,3.22
2017-05-09T04:10:45.945Z,3.10
2017-05-09T04:13:15.001Z,3.34
2017-05-09T04:15:44.125Z,2.88
2017-05-09T04:18:13.223Z,3.06
2017-05-09T04:20:42.334Z,3.12
2017-05-09T04:23:11.455Z,2.56
2017-05-09T04:25:40.550Z,2.68
2017-05-09T04:28:09.634Z,2.70
2017-05-09T04:30:38.726Z,3.00
2017-05-09T04:33:07.831Z,3.20
2017-05-09T04:35:36.934Z,2.90
2017-05-09T04:38:06.130Z,3.28
2017-05-09T04:40:35.231Z,2.90
2017-05-09T04:43:04.432Z,2.62
2017-05-09T04:45:33.540Z,2.82
2017-05-09T04:48:02.645Z,3.28
2017-05-09T04:50:31.752Z,2.86
2017-05-09T04:53:00.866Z,3.28
2017-05-09T04:55:30.006Z,3.24
2017-05-09T04:57:59.110Z,2.60
2017-05-09T05:00:28.230Z,3.04
2017-05-09T05:02:57.388Z,2.94
2017-05-09T05:05:26.633Z,2.92
2017-05-09T05:07:55.771Z,2.84
2017-05-09T05:10:25.143Z,2.84
2017-05-09T05:12:54.253Z,3.30
2017-05-09T05:15:23.326Z,3.14
2017-05-09T05:17:52.602Z,3.28
2017-05-09T05:20:21.684Z,3.26
2017-05-09T05:22:50.829Z,3.06
2017-05-09T05:25:19.900Z,3.18
2017-05-09T05:27:48.996Z,3.12
2017-05-09T05:30:18.067Z,3.30
2017-05-09T05:32:47.439Z,4.92
2017-05-09T05:35:17.332Z,2.98
2017-05-09T05:37:46.458Z,2.26
2017-05-09T05:40:15.567Z,2.82
2017-05-09T05:42:44.686Z,2.08
2017-05-09T05:45:13.769Z,2.72
2017-05-09T05:47:42.901Z,2.20
2017-05-09T05:50:11.258Z,2.88
2017-05-09T05:52:40.423Z,2.60
2017-05-09T05:55:09.585Z,2.88
2017-05-09T05:57:38.671Z,2.40
2017-05-09T06:00:07.810Z,1.82
2017-05-09T06:02:37.018Z,2.08
2017-05-09T06:05:07.532Z,1.46
2017-05-09T06:07:37.362Z,1.70
2017-05-09T06:10:05.842Z,2.98
2017-05-09T06:12:35.174Z,2.28
2017-05-09T06:15:04.345Z,1.74
2017-05-09T06:17:34.326Z,1.60
2017-05-09T06:20:03.973Z,1.72
2017-05-09T06:22:34.039Z,1.22
2017-05-09T06:25:03.276Z,1.08
2017-05-09T06:27:32.406Z,1.30
2017-05-09T06:30:01.519Z,1.48
2017-05-09T06:32:30.676Z,1.28
2017-05-09T06:35:00.642Z,1.10
2017-05-09T06:37:29.788Z,1.54
2017-05-09T06:39:59.983Z,1.54
2017-05-09T06:42:29.205Z,1.50
2017-05-09T06:44:58.388Z,1.22
2017-05-09T06:47:27.522Z,1.44
2017-05-09T06:49:57.894Z,1.20
2017-05-09T06:52:27.248Z,1.26
2017-05-09T06:54:56.544Z,1.64
2017-05-09T06:57:25.713Z,1.82
2017-05-09T06:59:54.939Z,1.44
2017-05-09T07:02:24.086Z,1.22
2017-05-09T07:04:53.165Z,1.38
2017-05-09T07:07:23.369Z,1.18
2017-05-09T07:09:52.524Z,1.22
2017-05-09T07:12:22.405Z,2.66
2017-05-09T07:14:51.597Z,1.66
2017-05-09T07:17:19.914Z,1.02
2017-05-09T07:19:49.273Z,1.72
2017-05-09T07:22:18.391Z,1.30
2017-05-09T07:24:48.170Z,1.22
2017-05-09T07:27:17.303Z,1.20
2017-05-09T07:29:46.459Z,1.48
2017-05-09T07:32:15.542Z,1.18
2017-05-09T07:34:44.736Z,1.82
2017-05-09T07:37:13.847Z,2.34
2017-05-09T07:39:42.897Z,1.20
2017-05-09T07:42:13.283Z,1.54
2017-05-09T07:44:42.519Z,1.50
2017-05-09T07:47:11.697Z,1.44
2017-05-09T07:49:40.804Z,1.66
2017-05-09T07:52:10.814Z,1.80
2017-05-09T07:54:39.927Z,1.56
2017-05-09T07:57:09.075Z,1.50
2017-05-09T07:59:38.187Z,2.00
2017-05-09T08:02:07.345Z,1.84
2017-05-09T08:04:36.497Z,1.86
2017-05-09T08:07:05.597Z,1.58
2017-05-09T08:09:34.830Z,1.80
2017-05-09T08:12:04.548Z,1.84
2017-05-09T08:14:33.722Z,1.90
2017-05-09T08:17:02.895Z,1.62
2017-05-09T08:19:32.241Z,1.84
2017-05-09T08:22:02.294Z,1.60
2017-05-09T08:24:32.258Z,1.36
2017-05-09T08:27:03.227Z,1.56
2017-05-09T08:29:32.417Z,2.02
2017-05-09T08:32:01.742Z,1.88
2017-05-09T08:34:30.952Z,1.94
2017-05-09T08:37:00.126Z,1.40
2017-05-09T08:39:29.298Z,1.50
2017-05-09T08:41:58.431Z,1.50
2017-05-09T08:44:27.833Z,1.68
2017-05-09T08:46:57.912Z,1.84
2017-05-09T08:49:27.170Z,1.86
2017-05-09T08:51:56.914Z,1.84
2017-05-09T08:54:26.159Z,1.32
2017-05-09T08:56:55.289Z,1.56
2017-05-09T08:59:24.433Z,1.70
2017-05-09T09:01:53.612Z,1.56
2017-05-09T09:04:23.609Z,1.30
2017-05-09T09:06:53.081Z,1.86
2017-05-09T09:09:22.294Z,2.00
2017-05-09T09:11:51.443Z,1.54
2017-05-09T09:14:20.601Z,1.76
2017-05-09T09:16:49.730Z,2.10
2017-05-09T09:19:18.909Z,2.28
2017-05-09T09:21:48.858Z,1.64
2017-05-09T09:24:17.994Z,2.10
2017-05-09T09:26:47.207Z,2.20
2017-05-09T09:29:16.318Z,2.76
2017-05-09T09:31:44.943Z,2.72
2017-05-09T09:34:14.065Z,2.32
2017-05-09T09:36:43.273Z,2.76
2017-05-09T09:39:12.551Z,2.76
2017-05-09T09:41:41.731Z,2.22
2017-05-09T09:44:10.858Z,2.12
2017-05-09T09:46:40.011Z,1.80
2017-05-09T09:49:09.446Z,2.04
2017-05-09T09:51:38.683Z,2.02
2017-05-09T09:54:07.861Z,2.10
2017-05-09T09:56:36.997Z,2.00
2017-05-09T09:59:06.126Z,2.50
2017-05-09T10:01:35.230Z,2.22
2017-05-09T10:04:05.123Z,2.00
2017-05-09T10:06:35.649Z,1.58
2017-05-09T10:09:04.935Z,1.48
2017-05-09T10:11:34.954Z,1.60
2017-05-09T10:14:04.075Z,1.38
2017-05-09T10:16:33.307Z,1.52
2017-05-09T10:19:02.422Z,1.52
2017-05-09T10:21:32.082Z,1.72
2017-05-09T10:24:01.307Z,1.52
2017-05-09T10:26:32.565Z,1.38
2017-05-09T10:29:01.759Z,1.68
2017-05-09T10:31:30.935Z,2.14
2017-05-09T10:34:00.114Z,1.78
2017-05-09T10:36:30.244Z,2.48
2017-05-09T10:39:00.357Z,1.72
2017-05-09T10:41:30.050Z,1.76
2017-05-09T10:43:59.480Z,2.56
2017-05-09T10:46:28.642Z,1.90
2017-05-09T10:48:57.774Z,2.02
2017-05-09T10:51:26.927Z,1.96
2017-05-09T10:53:56.038Z,1.96
2017-05-09T10:56:25.362Z,1.80
2017-05-09T10:58:53.774Z,1.62
2017-05-09T11:01:23.202Z,1.90
2017-05-09T11:03:52.361Z,1.72
2017-05-09T11:06:21.528Z,1.90
2017-05-09T11:08:50.869Z,1.90
2017-05-09T11:11:20.051Z,2.28
2017-05-09T11:13:49.199Z,1.40
2017-05-09T11:16:18.334Z,1.88
2017-05-09T11:18:47.742Z,1.38
2017-05-09T11:21:17.836Z,1.78
2017-05-09T11:23:47.037Z,1.82
2017-05-09T11:26:16.918Z,2.02
2017-05-09T11:28:46.107Z,1.70
2017-05-09T11:31:15.417Z,2.26
2017-05-09T11:33:43.875Z,1.80
2017-05-09T11:36:13.015Z,2.00
2017-05-09T11:38:42.115Z,1.98
2017-05-09T11:41:11.562Z,1.70
2017-05-09T11:43:40.721Z,1.84
2017-05-09T11:46:09.910Z,1.70
2017-05-09T11:48:39.712Z,2.10
2017-05-09T11:51:08.838Z,1.86
2017-05-09T11:53:38.043Z,2.16
2017-05-09T11:56:07.259Z,2.02
2017-05-09T11:58:36.432Z,1.96
2017-05-09T12:01:05.627Z,1.80
2017-05-09T12:03:35.703Z,2.24
2017-05-09T12:06:04.898Z,2.50
2017-05-09T12:08:34.141Z,2.06
2017-05-09T12:11:03.298Z,2.02
2017-05-09T12:13:32.709Z,2.44
2017-05-09T12:16:01.862Z,2.00
2017-05-09T12:18:31.030Z,2.10
2017-05-09T12:21:00.157Z,2.58
2017-05-09T12:23:29.248Z,2.10
2017-05-09T12:25:58.318Z,2.28
2017-05-09T12:28:27.475Z,2.14
2017-05-09T12:30:56.631Z,2.30
2017-05-09T12:33:25.718Z,2.66
2017-05-09T12:35:54.985Z,2.32
2017-05-09T12:38:24.148Z,2.62
2017-05-09T12:40:53.243Z,2.26
2017-05-09T12:43:22.337Z,2.66
2017-05-09T12:45:51.422Z,2.18
2017-05-09T12:48:20.545Z,2.48
2017-05-09T12:50:49.618Z,2.46
2017-05-09T12:53:18.721Z,2.70
2017-05-09T12:55:47.095Z,2.14
2017-05-09T12:58:16.205Z,2.46
2017-05-09T13:00:45.341Z,2.28
2017-05-09T13:03:14.463Z,2.34
2017-05-09T13:05:43.533Z,2.38
2017-05-09T13:08:12.653Z,2.00
2017-05-09T13:10:41.870Z,1.86
2017-05-09T13:13:10.957Z,2.34
2017-05-09T13:15:40.042Z,2.44
2017-05-09T13:18:09.211Z,2.40
2017-05-09T13:20:38.309Z,2.88
2017-05-09T13:23:07.400Z,2.10
2017-05-09T13:25:36.472Z,2.10
2017-05-09T13:28:05.582Z,2.56
2017-05-09T13:30:34.690Z,2.32
2017-05-09T13:33:03.774Z,3.02
2017-05-09T13:35:32.872Z,2.00
2017-05-09T13:38:01.986Z,2.22
2017-05-09T13:40:31.087Z,1.70
2017-05-09T13:42:59.409Z,1.92
2017-05-09T13:45:28.529Z,2.14
2017-05-09T13:47:57.605Z,2.00
2017-05-09T13:50:26.729Z,2.54
2017-05-09T13:52:55.852Z,1.64
2017-05-09T13:55:24.978Z,2.08
2017-05-09T13:57:54.065Z,2.20
2017-05-09T14:00:23.149Z,2.24
2017-05-09T14:02:52.262Z,1.60
2017-05-09T14:05:21.362Z,2.20
2017-05-09T14:07:50.463Z,2.20
2017-05-09T14:10:19.552Z,2.24
2017-05-09T14:12:48.663Z,1.74
2017-05-09T14:15:17.741Z,2.10
2017-05-09T14:17:46.882Z,1.98
2017-05-09T14:20:16.347Z,2.08
2017-05-09T14:22:45.433Z,2.60
2017-05-09T14:25:14.515Z,2.36
2017-05-09T14:27:43.623Z,1.80
2017-05-09T14:30:12.715Z,2.16
2017-05-09T14:32:41.813Z,2.32
2017-05-09T14:35:10.976Z,2.24
2017-05-09T14:37:40.055Z,2.12
2017-05-09T14:40:09.216Z,2.02
2017-05-09T14:42:38.333Z,2.20
2017-05-09T14:45:07.433Z,2.10
2017-05-09T14:47:36.528Z,3.68
2017-05-09T14:50:05.686Z,2.58
2017-05-09T14:52:34.822Z,2.02
2017-05-09T14:55:03.958Z,2.00
2017-05-09T14:57:33.065Z,2.00
2017-05-09T15:00:03.892Z,2.85
2017-05-09T15:02:33.280Z,2.97
2017-05-09T15:05:02.401Z,2.00
2017-05-09T15:07:32.319Z,2.98
2017-05-09T15:10:01.451Z,2.13
2017-05-09T15:12:30.643Z,2.40
2017-05-09T15:14:59.777Z,2.38
2017-05-09T15:17:30.254Z,1.92
2017-05-09T15:19:59.579Z,1.80
2017-05-09T15:22:28.689Z,2.20
2017-05-09T15:24:57.822Z,2.70
2017-05-09T15:27:28.756Z,2.20
2017-05-09T15:29:57.982Z,2.46
2017-05-09T15:32:27.790Z,1.60
2017-05-09T15:34:57.108Z,1.92
2017-05-09T15:37:26.240Z,2.20
2017-05-09T15:39:55.364Z,1.64
2017-05-09T15:42:24.573Z,1.40
2017-05-09T15:45:13.646Z,2.48
2017-05-09T15:47:42.888Z,1.86
2017-05-09T15:50:13.092Z,2.80
2017-05-09T15:52:42.302Z,1.76
2017-05-09T15:55:11.461Z,1.72
2017-05-09T15:57:40.749Z,1.88
2017-05-09T16:00:09.960Z,2.42
2017-05-09T16:02:39.973Z,3.56
2017-05-09T16:05:09.077Z,2.36
2017-05-09T16:07:38.187Z,2.18
2017-05-09T16:10:07.349Z,1.98
2017-05-09T16:12:36.572Z,1.80
2017-05-09T16:15:05.826Z,1.74
2017-05-09T16:17:35.778Z,2.22
2017-05-09T16:20:04.989Z,1.82
2017-05-09T16:22:34.578Z,2.08
2017-05-09T16:25:03.688Z,2.00
2017-05-09T16:27:33.102Z,1.80
2017-05-09T16:30:02.258Z,2.48
2017-05-09T16:32:31.510Z,2.58
2017-05-09T16:35:00.691Z,1.90
2017-05-09T16:37:29.874Z,2.04
2017-05-09T16:39:59.403Z,1.66
2017-05-09T16:42:28.508Z,2.48
2017-05-09T16:44:57.654Z,1.84
2017-05-09T16:47:27.719Z,2.26
2017-05-09T16:49:56.882Z,1.74
2017-05-09T16:52:25.970Z,2.00
2017-05-09T16:54:55.062Z,2.10
2017-05-09T16:57:24.165Z,1.84
2017-05-09T16:59:53.250Z,2.50
2017-05-09T17:02:22.387Z,2.08
2017-05-09T17:04:51.461Z,2.26
2017-05-09T17:07:20.546Z,1.70
2017-05-09T17:09:49.670Z,2.32
2017-05-09T17:12:18.733Z,1.86
2017-05-09T17:14:47.817Z,2.70
2017-05-09T17:17:16.925Z,2.10
2017-05-09T17:19:46.025Z,2.10
2017-05-09T17:22:15.142Z,1.76
2017-05-09T17:24:44.202Z,2.54
2017-05-09T17:27:13.334Z,1.80
2017-05-09T17:29:42.418Z,2.08
2017-05-09T17:32:11.494Z,1.98
2017-05-09T17:34:40.747Z,1.96
2017-05-09T17:37:09.849Z,2.54
2017-05-09T17:39:38.942Z,1.98
2017-05-09T17:42:08.053Z,2.80
2017-05-09T17:44:37.098Z,1.92
2017-05-09T17:47:06.218Z,3.36
2017-05-09T17:49:35.338Z,1.66
2017-05-09T17:52:04.531Z,2.62
2017-05-09T17:54:33.614Z,2.46
2017-05-09T17:57:02.797Z,2.22
2017-05-09T17:59:31.908Z,2.00
2017-05-09T18:02:00.990Z,2.02
2017-05-09T18:04:30.320Z,2.62
2017-05-09T18:06:59.405Z,2.96
2017-05-09T18:09:28.481Z,2.28
2017-05-09T18:11:57.601Z,2.28
2017-05-09T18:14:26.730Z,2.08
2017-05-09T18:16:55.871Z,2.48
2017-05-09T18:19:24.953Z,2.46
2017-05-09T18:21:54.187Z,1.78
2017-05-09T18:24:23.283Z,1.70
2017-05-09T18:26:52.382Z,2.98
2017-05-09T18:29:21.509Z,2.98
2017-05-09T18:31:50.597Z,2.04
2017-05-09T18:34:19.046Z,3.30
2017-05-09T18:36:48.133Z,2.62
2017-05-09T18:39:17.254Z,2.76
2017-05-09T18:41:46.344Z,2.90
2017-05-09T18:44:15.435Z,3.08
2017-05-09T18:46:44.570Z,2.26
2017-05-09T18:49:13.653Z,3.98
2017-05-09T18:51:42.729Z,3.42
2017-05-09T18:54:11.862Z,3.42
2017-05-09T18:56:41.288Z,2.88
2017-05-09T18:59:10.392Z,3.44
2017-05-09T19:01:39.470Z,3.10
2017-05-09T19:04:08.617Z,4.60
2017-05-09T19:06:37.765Z,2.80
2017-05-09T19:09:07.615Z,3.18
2017-05-09T19:11:36.730Z,2.88
2017-05-09T19:14:05.909Z,3.68
2017-05-09T19:16:35.110Z,4.12
2017-05-09T19:19:05.116Z,2.80
2017-05-09T19:21:34.252Z,3.28
2017-05-09T19:24:03.386Z,2.94
2017-05-09T19:26:32.731Z,2.96
2017-05-09T19:29:01.832Z,2.46
2017-05-09T19:31:31.018Z,2.74
2017-05-09T19:33:59.401Z,2.80
2017-05-09T19:36:28.525Z,3.50
2017-05-09T19:38:57.654Z,2.30
2017-05-09T19:41:26.781Z,2.42
2017-05-09T19:43:55.898Z,3.64
2017-05-09T19:46:25.033Z,3.00
2017-05-09T19:48:54.126Z,3.82
2017-05-09T19:51:23.252Z,3.20
2017-05-09T19:53:52.391Z,3.08
2017-05-09T19:56:21.501Z,3.10
2017-05-09T19:58:50.608Z,2.96
2017-05-09T20:01:19.274Z,2.40
2017-05-09T20:03:48.404Z,4.26
2017-05-09T20:06:17.546Z,3.32
2017-05-09T20:08:46.682Z,3.06
2017-05-09T20:11:15.866Z,4.26
2017-05-09T20:13:46.055Z,3.86
2017-05-09T20:16:15.200Z,3.40
2017-05-09T20:18:44.356Z,2.78
2017-05-09T20:21:13.453Z,3.46
2017-05-09T20:23:42.531Z,3.34
2017-05-09T20:26:11.645Z,4.58
2017-05-09T20:28:40.728Z,5.08
2017-05-09T20:31:10.109Z,5.38
2017-05-09T20:33:39.197Z,4.50
2017-05-09T20:36:08.312Z,5.18
2017-05-09T20:38:37.443Z,3.46
2017-05-09T20:41:06.571Z,4.00
2017-05-09T20:43:35.692Z,4.14
2017-05-09T20:46:05.040Z,3.72
2017-05-09T20:48:34.187Z,4.44
2017-05-09T20:51:03.687Z,3.54
2017-05-09T20:53:33.293Z,3.84
2017-05-09T20:56:02.370Z,3.86
2017-05-09T20:58:31.470Z,3.68
2017-05-09T21:01:00.845Z,3.94
2017-05-09T21:03:29.972Z,2.88
2017-05-09T21:05:59.050Z,3.82
2017-05-09T21:08:28.182Z,2.86
2017-05-09T21:10:57.256Z,3.16
2017-05-09T21:13:26.408Z,2.96
2017-05-09T21:15:55.538Z,2.68
2017-05-09T21:18:24.693Z,3.60
2017-05-09T21:20:53.791Z,3.42
2017-05-09T21:23:23.273Z,2.94
2017-05-09T21:25:52.377Z,3.22
2017-05-09T21:28:21.502Z,3.16
2017-05-09T21:30:50.614Z,3.46
2017-05-09T21:33:19.694Z,2.84
2017-05-09T21:35:48.030Z,2.70
2017-05-09T21:38:17.170Z,2.60
2017-05-09T21:40:46.321Z,2.44
2017-05-09T21:43:15.506Z,2.56
2017-05-09T21:45:44.629Z,2.16
2017-05-09T21:48:13.717Z,3.54
2017-05-09T21:50:42.850Z,2.46
2017-05-09T21:53:11.951Z,2.38
2017-05-09T21:55:41.074Z,2.44
2017-05-09T21:58:10.176Z,2.30
2017-05-09T22:00:39.573Z,2.56
2017-05-09T22:03:08.738Z,3.02
2017-05-09T22:05:37.830Z,3.56
2017-05-09T22:08:06.948Z,2.60
2017-05-09T22:10:36.144Z,3.34
2017-05-09T22:13:05.249Z,2.90
2017-05-09T22:15:47.007Z,2.22
2017-05-09T22:18:16.118Z,2.76
2017-05-09T22:20:45.509Z,2.48
2017-05-09T22:23:14.588Z,2.50
2017-05-09T22:25:43.683Z,3.08
2017-05-09T22:28:12.784Z,2.92
2017-05-09T22:30:41.981Z,2.96
2017-05-09T22:33:11.069Z,2.68
2017-05-09T22:35:40.191Z,3.32
2017-05-09T22:38:09.270Z,2.76
2017-05-09T22:40:38.349Z,2.48
2017-05-09T22:43:06.708Z,3.30
2017-05-09T22:45:35.782Z,2.92
2017-05-09T22:48:04.906Z,2.82
2017-05-09T22:50:34.026Z,2.68
2017-05-09T22:53:03.108Z,2.98
2017-05-09T22:55:32.278Z,3.12
2017-05-09T22:58:01.418Z,2.42
2017-05-09T23:00:30.507Z,2.50
2017-05-09T23:02:59.604Z,2.98
2017-05-09T23:05:28.683Z,2.52
2017-05-09T23:07:57.792Z,2.68
2017-05-09T23:10:26.874Z,4.02
2017-05-09T23:12:56.008Z,3.02
2017-05-09T23:15:25.101Z,3.22
2017-05-09T23:17:54.224Z,3.04
2017-05-09T23:20:23.361Z,2.90
2017-05-09T23:22:51.809Z,3.52
2017-05-09T23:25:20.961Z,3.14
2017-05-09T23:27:50.199Z,2.82
2017-05-09T23:30:19.322Z,3.06
2017-05-09T23:32:48.465Z,3.34
2017-05-09T23:35:17.620Z,2.52
2017-05-09T23:37:46.000Z,2.64
2017-05-09T23:40:15.130Z,3.00
2017-05-09T23:42:44.258Z,2.98
2017-05-09T23:45:13.419Z,2.90
2017-05-09T23:47:42.523Z,2.78
2017-05-09T23:50:11.681Z,3.10
2017-05-09T23:52:40.792Z,3.10
2017-05-09T23:55:09.870Z,3.40
2017-05-09T23:57:38.978Z,2.62
